sensor_id;sensor_type;location;lat;lon;timestamp;P1;durP1;ratioP1;P2;durP2;ratioP2
17528;SDS011;8882;53.192;8.184;2024-03-02T05:19:34;12.13;;;8.10;;
17528;SDS011;8882;53.192;8.184;2024-03-02T05:22:00;11.73;;;7.50;;
17528;SDS011;8882;53.192;8.184;2024-03-02T05:24:25;12.27;;;7.83;;
17528;SDS011;8882;53.192;8.184;2024-03-02T05:26:54;9.90;;;6.90;;
17528;SDS011;8882;53.192;8.184;2024-03-02T05:29:19;12.67;;;7.23;;
17528;SDS011;8882;53.192;8.184;2024-03-02T05:31:46;11.93;;;7.17;;
17528;SDS011;8882;53.192;8.184;2024-03-02T05:34:11;10.43;;;6.97;;
17528;SDS011;8882;53.192;8.184;2024-03-02T05:36:37;10.33;;;6.60;;
17528;SDS011;8882;53.192;8.184;2024-03-02T05:39:04;11.40;;;7.17;;
17528;SDS011;8882;53.192;8.184;2024-03-02T05:41:33;9.83;;;6.97;;
17528;SDS011;8882;53.192;8.184;2024-03-02T05:43:59;11.90;;;7.37;;
17528;SDS011;8882;53.192;8.184;2024-03-02T05:46:25;10.63;;;7.57;;
17528;SDS011;8882;53.192;8.184;2024-03-02T05:48:50;12.27;;;7.20;;
17528;SDS011;8882;53.192;8.184;2024-03-02T05:51:16;11.53;;;6.60;;
17528;SDS011;8882;53.192;8.184;2024-03-02T05:53:41;11.33;;;7.47;;
17528;SDS011;8882;53.192;8.184;2024-03-02T05:56:07;11.30;;;7.43;;
17528;SDS011;8882;53.192;8.184;2024-03-02T05:58:33;11.03;;;7.40;;
17528;SDS011;8882;53.192;8.184;2024-03-02T06:01:13;11.90;;;7.23;;
17528;SDS011;8882;53.192;8.184;2024-03-02T06:03:38;11.10;;;7.30;;
17528;SDS011;8882;53.192;8.184;2024-03-02T06:06:04;10.67;;;6.90;;
17528;SDS011;8882;53.192;8.184;2024-03-02T06:08:30;10.20;;;6.80;;
17528;SDS011;8882;53.192;8.184;2024-03-02T06:10:56;7.97;;;5.90;;
17528;SDS011;8882;53.192;8.184;2024-03-02T06:13:22;10.37;;;6.80;;
17528;SDS011;8882;53.192;8.184;2024-03-02T06:15:48;9.50;;;6.30;;
17528;SDS011;8882;53.192;8.184;2024-03-02T06:18:13;10.27;;;6.80;;
17528;SDS011;8882;53.192;8.184;2024-03-02T06:20:39;9.37;;;6.80;;
17528;SDS011;8882;53.192;8.184;2024-03-02T06:23:04;10.93;;;7.13;;
17528;SDS011;8882;53.192;8.184;2024-03-02T06:25:30;11.90;;;7.50;;
17528;SDS011;8882;53.192;8.184;2024-03-02T06:27:55;11.83;;;6.80;;
17528;SDS011;8882;53.192;8.184;2024-03-02T06:30:21;10.10;;;6.97;;
17528;SDS011;8882;53.192;8.184;2024-03-02T06:32:46;11.43;;;7.30;;
17528;SDS011;8882;53.192;8.184;2024-03-02T06:35:12;10.33;;;6.80;;
17528;SDS011;8882;53.192;8.184;2024-03-02T06:37:38;12.10;;;7.83;;
17528;SDS011;8882;53.192;8.184;2024-03-02T06:40:05;12.13;;;8.30;;
17528;SDS011;8882;53.192;8.184;2024-03-02T06:42:32;13.27;;;8.73;;
17528;SDS011;8882;53.192;8.184;2024-03-02T06:44:58;10.60;;;7.37;;
17528;SDS011;8882;53.192;8.184;2024-03-02T06:47:24;11.30;;;7.73;;
17528;SDS011;8882;53.192;8.184;2024-03-02T06:49:50;13.53;;;7.90;;
17528;SDS011;8882;53.192;8.184;2024-03-02T06:52:15;11.83;;;7.53;;
17528;SDS011;8882;53.192;8.184;2024-03-02T06:54:41;9.83;;;6.87;;
17528;SDS011;8882;53.192;8.184;2024-03-02T06:57:06;11.47;;;7.90;;
17528;SDS011;8882;53.192;8.184;2024-03-02T06:59:32;11.97;;;7.53;;
17528;SDS011;8882;53.192;8.184;2024-03-02T07:01:58;10.20;;;7.00;;
17528;SDS011;8882;53.192;8.184;2024-03-02T07:04:24;12.03;;;7.90;;
17528;SDS011;8882;53.192;8.184;2024-03-02T07:06:49;11.63;;;7.43;;
17528;SDS011;8882;53.192;8.184;2024-03-02T07:09:16;9.83;;;7.03;;
17528;SDS011;8882;53.192;8.184;2024-03-02T07:11:42;11.03;;;7.67;;
17528;SDS011;8882;53.192;8.184;2024-03-02T07:14:07;11.00;;;7.40;;
17528;SDS011;8882;53.192;8.184;2024-03-02T07:16:32;11.80;;;7.43;;
17528;SDS011;8882;53.192;8.184;2024-03-02T07:18:59;11.40;;;7.80;;
17528;SDS011;8882;53.192;8.184;2024-03-02T07:21:26;11.70;;;7.67;;
17528;SDS011;8882;53.192;8.184;2024-03-02T07:23:52;11.57;;;7.73;;
17528;SDS011;8882;53.192;8.184;2024-03-02T07:26:18;10.70;;;7.80;;
17528;SDS011;8882;53.192;8.184;2024-03-02T07:28:44;12.67;;;8.43;;
17528;SDS011;8882;53.192;8.184;2024-03-02T07:31:11;12.30;;;7.87;;
17528;SDS011;8882;53.192;8.184;2024-03-02T07:33:36;11.93;;;8.00;;
17528;SDS011;8882;53.192;8.184;2024-03-02T07:36:02;13.03;;;8.20;;
17528;SDS011;8882;53.192;8.184;2024-03-02T07:38:28;13.13;;;8.20;;
17528;SDS011;8882;53.192;8.184;2024-03-02T07:40:54;10.87;;;7.80;;
17528;SDS011;8882;53.192;8.184;2024-03-02T07:43:20;13.33;;;8.70;;
17528;SDS011;8882;53.192;8.184;2024-03-02T07:45:46;12.83;;;8.23;;
17528;SDS011;8882;53.192;8.184;2024-03-02T07:48:12;10.43;;;7.60;;
17528;SDS011;8882;53.192;8.184;2024-03-02T07:50:38;13.13;;;8.33;;
17528;SDS011;8882;53.192;8.184;2024-03-02T07:53:04;13.43;;;8.80;;
17528;SDS011;8882;53.192;8.184;2024-03-02T07:55:30;11.97;;;8.30;;
17528;SDS011;8882;53.192;8.184;2024-03-02T07:57:56;15.13;;;9.73;;
17528;SDS011;8882;53.192;8.184;2024-03-02T08:00:22;12.43;;;8.20;;
17528;SDS011;8882;53.192;8.184;2024-03-02T08:02:48;11.23;;;7.73;;
17528;SDS011;8882;53.192;8.184;2024-03-02T08:05:15;14.90;;;8.73;;
17528;SDS011;8882;53.192;8.184;2024-03-02T08:07:41;12.77;;;8.13;;
17528;SDS011;8882;53.192;8.184;2024-03-02T08:10:08;14.60;;;8.10;;
17528;SDS011;8882;53.192;8.184;2024-03-02T08:12:34;12.53;;;8.27;;
17528;SDS011;8882;53.192;8.184;2024-03-02T08:15:00;13.97;;;8.70;;
17528;SDS011;8882;53.192;8.184;2024-03-02T08:17:25;12.20;;;8.17;;
17528;SDS011;8882;53.192;8.184;2024-03-02T08:19:51;12.83;;;8.40;;
17528;SDS011;8882;53.192;8.184;2024-03-02T08:22:17;12.20;;;8.70;;
17528;SDS011;8882;53.192;8.184;2024-03-02T08:24:42;11.40;;;8.53;;
17528;SDS011;8882;53.192;8.184;2024-03-02T08:27:08;12.03;;;8.37;;
17528;SDS011;8882;53.192;8.184;2024-03-02T08:29:34;12.93;;;8.20;;
17528;SDS011;8882;53.192;8.184;2024-03-02T08:31:59;15.53;;;8.60;;
17528;SDS011;8882;53.192;8.184;2024-03-02T08:34:25;12.13;;;8.20;;
17528;SDS011;8882;53.192;8.184;2024-03-02T08:36:51;12.37;;;8.33;;
17528;SDS011;8882;53.192;8.184;2024-03-02T08:39:16;12.30;;;8.40;;
17528;SDS011;8882;53.192;8.184;2024-03-02T08:41:44;11.27;;;7.20;;
17528;SDS011;8882;53.192;8.184;2024-03-02T08:44:10;14.87;;;8.00;;
17528;SDS011;8882;53.192;8.184;2024-03-02T08:46:36;12.03;;;7.70;;
17528;SDS011;8882;53.192;8.184;2024-03-02T08:49:02;11.43;;;7.60;;
17528;SDS011;8882;53.192;8.184;2024-03-02T08:51:28;10.73;;;7.40;;
17528;SDS011;8882;53.192;8.184;2024-03-02T08:53:53;9.73;;;7.27;;
17528;SDS011;8882;53.192;8.184;2024-03-02T08:56:19;10.20;;;7.83;;
17528;SDS011;8882;53.192;8.184;2024-03-02T08:58:46;9.97;;;7.57;;
17528;SDS011;8882;53.192;8.184;2024-03-02T09:01:12;11.93;;;7.40;;
17528;SDS011;8882;53.192;8.184;2024-03-02T09:03:37;13.53;;;7.27;;
17528;SDS011;8882;53.192;8.184;2024-03-02T09:06:03;13.97;;;7.80;;
17528;SDS011;8882;53.192;8.184;2024-03-02T09:08:29;11.70;;;6.80;;
17528;SDS011;8882;53.192;8.184;2024-03-02T09:10:55;10.53;;;6.97;;
17528;SDS011;8882;53.192;8.184;2024-03-02T09:13:21;8.77;;;6.17;;
17528;SDS011;8882;53.192;8.184;2024-03-02T09:15:47;11.53;;;6.00;;
17528;SDS011;8882;53.192;8.184;2024-03-02T09:18:12;8.47;;;6.47;;
17528;SDS011;8882;53.192;8.184;2024-03-02T09:20:38;9.10;;;6.37;;
17528;SDS011;8882;53.192;8.184;2024-03-02T09:23:04;8.90;;;6.30;;
17528;SDS011;8882;53.192;8.184;2024-03-02T09:25:29;7.37;;;4.97;;
17528;SDS011;8882;53.192;8.184;2024-03-02T09:27:55;8.47;;;6.03;;
17528;SDS011;8882;53.192;8.184;2024-03-02T09:30:20;9.90;;;5.50;;
17528;SDS011;8882;53.192;8.184;2024-03-02T09:32:46;6.90;;;5.27;;
17528;SDS011;8882;53.192;8.184;2024-03-02T09:35:11;10.23;;;6.07;;
17528;SDS011;8882;53.192;8.184;2024-03-02T09:37:37;8.63;;;6.27;;
17528;SDS011;8882;53.192;8.184;2024-03-02T09:40:03;8.73;;;5.70;;
17528;SDS011;8882;53.192;8.184;2024-03-02T09:42:29;8.23;;;5.50;;
17528;SDS011;8882;53.192;8.184;2024-03-02T09:44:55;8.20;;;5.57;;
17528;SDS011;8882;53.192;8.184;2024-03-02T09:47:22;7.37;;;5.40;;
17528;SDS011;8882;53.192;8.184;2024-03-02T09:49:47;6.17;;;5.13;;
17528;SDS011;8882;53.192;8.184;2024-03-02T09:52:14;7.97;;;5.30;;
17528;SDS011;8882;53.192;8.184;2024-03-02T09:54:41;8.30;;;5.30;;
17528;SDS011;8882;53.192;8.184;2024-03-02T09:57:06;11.93;;;5.23;;
17528;SDS011;8882;53.192;8.184;2024-03-02T09:59:32;6.83;;;5.37;;
17528;SDS011;8882;53.192;8.184;2024-03-02T10:01:58;7.10;;;5.03;;
17528;SDS011;8882;53.192;8.184;2024-03-02T10:04:28;6.50;;;4.33;;
17528;SDS011;8882;53.192;8.184;2024-03-02T10:09:38;6.83;;;4.37;;
17528;SDS011;8882;53.192;8.184;2024-03-02T10:12:05;4.80;;;3.67;;
17528;SDS011;8882;53.192;8.184;2024-03-02T10:14:32;4.43;;;3.80;;
17528;SDS011;8882;53.192;8.184;2024-03-02T10:19:30;7.10;;;4.00;;
17528;SDS011;8882;53.192;8.184;2024-03-02T10:22:03;6.10;;;4.10;;
17528;SDS011;8882;53.192;8.184;2024-03-02T10:27:06;5.83;;;3.80;;
17528;SDS011;8882;53.192;8.184;2024-03-02T10:29:34;4.63;;;3.33;;
17528;SDS011;8882;53.192;8.184;2024-03-02T10:32:02;4.20;;;3.57;;
17528;SDS011;8882;53.192;8.184;2024-03-02T10:34:28;3.93;;;3.33;;
17528;SDS011;8882;53.192;8.184;2024-03-02T10:36:53;8.57;;;3.90;;
17528;SDS011;8882;53.192;8.184;2024-03-02T10:39:20;4.37;;;3.17;;
17528;SDS011;8882;53.192;8.184;2024-03-02T10:41:46;5.43;;;3.93;;
17528;SDS011;8882;53.192;8.184;2024-03-02T10:44:14;5.23;;;3.90;;
17528;SDS011;8882;53.192;8.184;2024-03-02T10:46:40;5.10;;;3.67;;
17528;SDS011;8882;53.192;8.184;2024-03-02T10:49:08;5.93;;;3.33;;
17528;SDS011;8882;53.192;8.184;2024-03-02T10:51:35;5.67;;;3.40;;
17528;SDS011;8882;53.192;8.184;2024-03-02T10:54:03;6.00;;;3.80;;
17528;SDS011;8882;53.192;8.184;2024-03-02T10:56:39;4.00;;;3.60;;
17528;SDS011;8882;53.192;8.184;2024-03-02T10:59:16;7.57;;;3.60;;
17528;SDS011;8882;53.192;8.184;2024-03-02T11:01:48;4.60;;;2.90;;
17528;SDS011;8882;53.192;8.184;2024-03-02T11:04:18;3.40;;;3.10;;
17528;SDS011;8882;53.192;8.184;2024-03-02T11:06:48;3.20;;;2.90;;
17528;SDS011;8882;53.192;8.184;2024-03-02T11:09:15;4.73;;;3.20;;
17528;SDS011;8882;53.192;8.184;2024-03-02T11:11:44;4.97;;;3.17;;
17528;SDS011;8882;53.192;8.184;2024-03-02T11:14:14;3.47;;;3.17;;
17528;SDS011;8882;53.192;8.184;2024-03-02T11:16:44;4.27;;;3.23;;
17528;SDS011;8882;53.192;8.184;2024-03-02T11:19:14;5.13;;;3.00;;
17528;SDS011;8882;53.192;8.184;2024-03-02T11:21:41;4.10;;;2.97;;
17528;SDS011;8882;53.192;8.184;2024-03-02T11:26:58;4.67;;;2.70;;
17528;SDS011;8882;53.192;8.184;2024-03-02T11:29:46;3.33;;;3.03;;
17528;SDS011;8882;53.192;8.184;2024-03-02T11:32:15;4.37;;;2.87;;
17528;SDS011;8882;53.192;8.184;2024-03-02T11:34:45;3.03;;;2.70;;
17528;SDS011;8882;53.192;8.184;2024-03-02T11:37:13;4.17;;;3.30;;
17528;SDS011;8882;53.192;8.184;2024-03-02T11:39:39;4.47;;;3.17;;
17528;SDS011;8882;53.192;8.184;2024-03-02T11:42:08;5.43;;;3.50;;
17528;SDS011;8882;53.192;8.184;2024-03-02T11:44:34;4.03;;;3.50;;
17528;SDS011;8882;53.192;8.184;2024-03-02T11:47:01;4.43;;;2.93;;
17528;SDS011;8882;53.192;8.184;2024-03-02T11:52:11;4.83;;;3.23;;
17528;SDS011;8882;53.192;8.184;2024-03-02T11:54:38;4.67;;;3.50;;
17528;SDS011;8882;53.192;8.184;2024-03-02T11:57:05;4.53;;;3.20;;
17528;SDS011;8882;53.192;8.184;2024-03-02T11:59:31;6.13;;;3.73;;
17528;SDS011;8882;53.192;8.184;2024-03-02T12:01:57;4.00;;;3.30;;
17528;SDS011;8882;53.192;8.184;2024-03-02T12:04:24;4.57;;;3.00;;
17528;SDS011;8882;53.192;8.184;2024-03-02T12:06:54;4.43;;;3.30;;
17528;SDS011;8882;53.192;8.184;2024-03-02T12:09:21;4.40;;;3.40;;
17528;SDS011;8882;53.192;8.184;2024-03-02T12:11:47;8.27;;;3.83;;
17528;SDS011;8882;53.192;8.184;2024-03-02T12:14:12;4.00;;;3.33;;
17528;SDS011;8882;53.192;8.184;2024-03-02T12:16:38;5.43;;;3.57;;
17528;SDS011;8882;53.192;8.184;2024-03-02T12:19:04;4.23;;;3.23;;
17528;SDS011;8882;53.192;8.184;2024-03-02T12:21:33;5.20;;;3.70;;
17528;SDS011;8882;53.192;8.184;2024-03-02T12:23:58;6.37;;;3.57;;
17528;SDS011;8882;53.192;8.184;2024-03-02T12:26:24;5.33;;;3.30;;
17528;SDS011;8882;53.192;8.184;2024-03-02T12:28:50;5.23;;;3.50;;
17528;SDS011;8882;53.192;8.184;2024-03-02T12:31:16;5.60;;;3.77;;
17528;SDS011;8882;53.192;8.184;2024-03-02T12:33:42;6.13;;;4.00;;
17528;SDS011;8882;53.192;8.184;2024-03-02T12:36:10;4.20;;;3.27;;
17528;SDS011;8882;53.192;8.184;2024-03-02T12:38:43;4.27;;;3.60;;
17528;SDS011;8882;53.192;8.184;2024-03-02T12:41:09;5.90;;;3.57;;
17528;SDS011;8882;53.192;8.184;2024-03-02T12:43:35;5.43;;;3.40;;
17528;SDS011;8882;53.192;8.184;2024-03-02T12:46:00;4.43;;;3.60;;
17528;SDS011;8882;53.192;8.184;2024-03-02T12:48:26;3.77;;;3.40;;
17528;SDS011;8882;53.192;8.184;2024-03-02T12:50:52;5.27;;;3.63;;
17528;SDS011;8882;53.192;8.184;2024-03-02T12:53:17;4.57;;;3.20;;
17528;SDS011;8882;53.192;8.184;2024-03-02T12:55:43;4.77;;;3.27;;
17528;SDS011;8882;53.192;8.184;2024-03-02T12:58:16;5.27;;;3.30;;
17528;SDS011;8882;53.192;8.184;2024-03-02T13:00:46;5.17;;;3.50;;
17528;SDS011;8882;53.192;8.184;2024-03-02T13:03:12;4.07;;;3.00;;
17528;SDS011;8882;53.192;8.184;2024-03-02T13:05:38;3.67;;;3.10;;
17528;SDS011;8882;53.192;8.184;2024-03-02T13:08:05;4.43;;;3.40;;
17528;SDS011;8882;53.192;8.184;2024-03-02T13:10:32;4.03;;;3.10;;
17528;SDS011;8882;53.192;8.184;2024-03-02T13:12:58;4.83;;;2.90;;
17528;SDS011;8882;53.192;8.184;2024-03-02T13:15:23;3.70;;;3.27;;
17528;SDS011;8882;53.192;8.184;2024-03-02T13:17:51;6.27;;;3.10;;
17528;SDS011;8882;53.192;8.184;2024-03-02T13:20:16;3.40;;;2.87;;
17528;SDS011;8882;53.192;8.184;2024-03-02T13:22:43;4.20;;;2.90;;
17528;SDS011;8882;53.192;8.184;2024-03-02T13:25:09;3.47;;;3.00;;
17528;SDS011;8882;53.192;8.184;2024-03-02T13:27:35;5.53;;;2.90;;
17528;SDS011;8882;53.192;8.184;2024-03-02T13:30:02;3.60;;;3.13;;
17528;SDS011;8882;53.192;8.184;2024-03-02T13:32:28;3.43;;;2.97;;
17528;SDS011;8882;53.192;8.184;2024-03-02T13:34:54;2.77;;;2.43;;
17528;SDS011;8882;53.192;8.184;2024-03-02T13:37:20;4.17;;;2.63;;
17528;SDS011;8882;53.192;8.184;2024-03-02T13:39:46;4.40;;;2.83;;
17528;SDS011;8882;53.192;8.184;2024-03-02T13:42:13;3.50;;;2.87;;
17528;SDS011;8882;53.192;8.184;2024-03-02T13:44:40;4.07;;;2.97;;
17528;SDS011;8882;53.192;8.184;2024-03-02T13:47:06;5.20;;;3.13;;
17528;SDS011;8882;53.192;8.184;2024-03-02T13:49:32;4.50;;;2.90;;
17528;SDS011;8882;53.192;8.184;2024-03-02T13:52:07;4.23;;;3.23;;
17528;SDS011;8882;53.192;8.184;2024-03-02T13:54:38;6.17;;;3.03;;
17528;SDS011;8882;53.192;8.184;2024-03-02T13:57:04;5.83;;;3.70;;
17528;SDS011;8882;53.192;8.184;2024-03-02T13:59:30;5.30;;;3.80;;
17528;SDS011;8882;53.192;8.184;2024-03-02T14:01:56;3.90;;;3.40;;
17528;SDS011;8882;53.192;8.184;2024-03-02T14:04:22;5.47;;;3.97;;
17528;SDS011;8882;53.192;8.184;2024-03-02T14:06:48;5.50;;;3.43;;
17528;SDS011;8882;53.192;8.184;2024-03-02T14:09:13;5.63;;;3.50;;
17528;SDS011;8882;53.192;8.184;2024-03-02T14:11:39;5.33;;;3.47;;
17528;SDS011;8882;53.192;8.184;2024-03-02T14:14:04;4.33;;;3.23;;
17528;SDS011;8882;53.192;8.184;2024-03-02T14:16:30;5.83;;;3.87;;
17528;SDS011;8882;53.192;8.184;2024-03-02T14:18:55;3.77;;;3.23;;
17528;SDS011;8882;53.192;8.184;2024-03-02T14:21:21;4.27;;;3.00;;
17528;SDS011;8882;53.192;8.184;2024-03-02T14:23:46;4.57;;;3.20;;
17528;SDS011;8882;53.192;8.184;2024-03-02T14:26:12;3.67;;;3.20;;
17528;SDS011;8882;53.192;8.184;2024-03-02T14:28:38;4.53;;;3.83;;
17528;SDS011;8882;53.192;8.184;2024-03-02T14:31:03;3.67;;;3.30;;
17528;SDS011;8882;53.192;8.184;2024-03-02T14:33:29;6.33;;;3.70;;
17528;SDS011;8882;53.192;8.184;2024-03-02T14:35:54;4.60;;;3.20;;
17528;SDS011;8882;53.192;8.184;2024-03-02T14:38:20;7.70;;;3.33;;
17528;SDS011;8882;53.192;8.184;2024-03-02T14:40:45;3.53;;;3.23;;
17528;SDS011;8882;53.192;8.184;2024-03-02T14:43:11;4.87;;;3.47;;
17528;SDS011;8882;53.192;8.184;2024-03-02T14:45:36;4.57;;;3.60;;
17528;SDS011;8882;53.192;8.184;2024-03-02T14:48:02;4.93;;;3.53;;
17528;SDS011;8882;53.192;8.184;2024-03-02T14:50:28;5.43;;;4.03;;
17528;SDS011;8882;53.192;8.184;2024-03-02T14:52:54;6.50;;;4.67;;
17528;SDS011;8882;53.192;8.184;2024-03-02T14:55:22;6.67;;;4.20;;
17528;SDS011;8882;53.192;8.184;2024-03-02T14:57:48;6.40;;;4.40;;
17528;SDS011;8882;53.192;8.184;2024-03-02T15:00:14;5.73;;;3.80;;
17528;SDS011;8882;53.192;8.184;2024-03-02T15:02:40;4.97;;;3.60;;
17528;SDS011;8882;53.192;8.184;2024-03-02T15:05:06;6.60;;;4.23;;
17528;SDS011;8882;53.192;8.184;2024-03-02T15:07:32;6.13;;;4.17;;
17528;SDS011;8882;53.192;8.184;2024-03-02T15:09:58;5.50;;;4.07;;
17528;SDS011;8882;53.192;8.184;2024-03-02T15:12:23;6.30;;;4.40;;
17528;SDS011;8882;53.192;8.184;2024-03-02T15:14:49;6.33;;;4.40;;
17528;SDS011;8882;53.192;8.184;2024-03-02T15:17:15;7.57;;;4.63;;
17528;SDS011;8882;53.192;8.184;2024-03-02T15:19:41;5.87;;;4.13;;
17528;SDS011;8882;53.192;8.184;2024-03-02T15:22:11;6.43;;;4.20;;
17528;SDS011;8882;53.192;8.184;2024-03-02T15:24:37;7.40;;;4.57;;
17528;SDS011;8882;53.192;8.184;2024-03-02T15:27:03;4.87;;;3.90;;
17528;SDS011;8882;53.192;8.184;2024-03-02T15:29:30;10.00;;;3.80;;
17528;SDS011;8882;53.192;8.184;2024-03-02T15:31:56;6.30;;;3.97;;
17528;SDS011;8882;53.192;8.184;2024-03-02T15:34:22;5.77;;;3.80;;
17528;SDS011;8882;53.192;8.184;2024-03-02T15:36:48;4.67;;;3.87;;
17528;SDS011;8882;53.192;8.184;2024-03-02T15:39:14;6.37;;;3.60;;
17528;SDS011;8882;53.192;8.184;2024-03-02T15:41:39;4.70;;;3.50;;
17528;SDS011;8882;53.192;8.184;2024-03-02T15:44:08;5.57;;;3.40;;
17528;SDS011;8882;53.192;8.184;2024-03-02T15:46:33;4.43;;;3.40;;
17528;SDS011;8882;53.192;8.184;2024-03-02T15:48:59;4.73;;;3.40;;
17528;SDS011;8882;53.192;8.184;2024-03-02T15:51:28;5.57;;;3.50;;
17528;SDS011;8882;53.192;8.184;2024-03-02T15:53:53;8.03;;;4.03;;
17528;SDS011;8882;53.192;8.184;2024-03-02T15:56:19;3.80;;;3.27;;
17528;SDS011;8882;53.192;8.184;2024-03-02T15:58:45;5.07;;;3.63;;
17528;SDS011;8882;53.192;8.184;2024-03-02T16:01:11;5.33;;;3.60;;
17528;SDS011;8882;53.192;8.184;2024-03-02T16:03:37;5.57;;;3.73;;
17528;SDS011;8882;53.192;8.184;2024-03-02T16:06:03;5.80;;;3.67;;
17528;SDS011;8882;53.192;8.184;2024-03-02T16:08:29;3.93;;;3.10;;
17528;SDS011;8882;53.192;8.184;2024-03-02T16:10:54;5.40;;;3.37;;
17528;SDS011;8882;53.192;8.184;2024-03-02T16:13:21;5.70;;;3.90;;
17528;SDS011;8882;53.192;8.184;2024-03-02T16:15:46;7.90;;;3.77;;
17528;SDS011;8882;53.192;8.184;2024-03-02T16:18:12;5.77;;;3.47;;
17528;SDS011;8882;53.192;8.184;2024-03-02T16:20:37;6.63;;;3.87;;
17528;SDS011;8882;53.192;8.184;2024-03-02T16:23:03;5.77;;;4.30;;
17528;SDS011;8882;53.192;8.184;2024-03-02T16:25:29;5.50;;;3.73;;
17528;SDS011;8882;53.192;8.184;2024-03-02T16:27:55;6.17;;;3.60;;
17528;SDS011;8882;53.192;8.184;2024-03-02T16:30:22;5.70;;;4.23;;
17528;SDS011;8882;53.192;8.184;2024-03-02T16:32:49;5.43;;;3.90;;
17528;SDS011;8882;53.192;8.184;2024-03-02T16:35:14;5.93;;;4.17;;
17528;SDS011;8882;53.192;8.184;2024-03-02T16:37:40;7.23;;;4.80;;
17528;SDS011;8882;53.192;8.184;2024-03-02T16:40:06;5.53;;;4.10;;
17528;SDS011;8882;53.192;8.184;2024-03-02T16:42:33;5.77;;;4.27;;
17528;SDS011;8882;53.192;8.184;2024-03-02T16:44:58;5.07;;;3.63;;
17528;SDS011;8882;53.192;8.184;2024-03-02T16:47:24;5.57;;;3.60;;
17528;SDS011;8882;53.192;8.184;2024-03-02T16:49:53;5.57;;;3.60;;
17528;SDS011;8882;53.192;8.184;2024-03-02T16:52:18;4.27;;;3.30;;
17528;SDS011;8882;53.192;8.184;2024-03-02T16:54:47;4.00;;;3.27;;
17528;SDS011;8882;53.192;8.184;2024-03-02T16:57:14;5.20;;;3.40;;
17528;SDS011;8882;53.192;8.184;2024-03-02T16:59:42;5.97;;;3.73;;
17528;SDS011;8882;53.192;8.184;2024-03-02T17:02:08;4.33;;;3.30;;
17528;SDS011;8882;53.192;8.184;2024-03-02T17:04:35;4.23;;;3.30;;
17528;SDS011;8882;53.192;8.184;2024-03-02T17:07:01;4.73;;;3.60;;
17528;SDS011;8882;53.192;8.184;2024-03-02T17:09:27;3.93;;;3.13;;
17528;SDS011;8882;53.192;8.184;2024-03-02T17:11:52;4.17;;;3.20;;
17528;SDS011;8882;53.192;8.184;2024-03-02T17:14:18;5.20;;;4.40;;
17528;SDS011;8882;53.192;8.184;2024-03-02T17:16:43;10.33;;;6.17;;
17528;SDS011;8882;53.192;8.184;2024-03-02T17:19:09;7.93;;;5.03;;
17528;SDS011;8882;53.192;8.184;2024-03-02T17:21:34;5.60;;;4.50;;
17528;SDS011;8882;53.192;8.184;2024-03-02T17:24:00;4.77;;;3.90;;
17528;SDS011;8882;53.192;8.184;2024-03-02T17:26:27;6.73;;;4.57;;
17528;SDS011;8882;53.192;8.184;2024-03-02T17:28:56;6.27;;;5.27;;
17528;SDS011;8882;53.192;8.184;2024-03-02T17:31:21;5.50;;;4.50;;
17528;SDS011;8882;53.192;8.184;2024-03-02T17:33:47;6.80;;;5.00;;
17528;SDS011;8882;53.192;8.184;2024-03-02T17:36:12;6.87;;;4.73;;
17528;SDS011;8882;53.192;8.184;2024-03-02T17:38:39;5.63;;;3.53;;
17528;SDS011;8882;53.192;8.184;2024-03-02T17:41:05;6.63;;;4.30;;
17528;SDS011;8882;53.192;8.184;2024-03-02T17:43:32;8.70;;;4.87;;
17528;SDS011;8882;53.192;8.184;2024-03-02T17:46:01;6.83;;;4.73;;
17528;SDS011;8882;53.192;8.184;2024-03-02T17:48:27;8.63;;;5.73;;
17528;SDS011;8882;53.192;8.184;2024-03-02T17:50:53;9.87;;;5.80;;
17528;SDS011;8882;53.192;8.184;2024-03-02T17:53:18;9.00;;;5.63;;
17528;SDS011;8882;53.192;8.184;2024-03-02T17:55:44;11.50;;;7.10;;
17528;SDS011;8882;53.192;8.184;2024-03-02T17:58:09;13.30;;;6.87;;
17528;SDS011;8882;53.192;8.184;2024-03-02T18:00:35;10.40;;;6.33;;
17528;SDS011;8882;53.192;8.184;2024-03-02T18:03:01;7.30;;;5.33;;
17528;SDS011;8882;53.192;8.184;2024-03-02T18:05:26;6.73;;;4.10;;
17528;SDS011;8882;53.192;8.184;2024-03-02T18:07:51;5.40;;;4.10;;
17528;SDS011;8882;53.192;8.184;2024-03-02T18:10:17;7.70;;;3.83;;
17528;SDS011;8882;53.192;8.184;2024-03-02T18:12:43;5.57;;;3.83;;
17528;SDS011;8882;53.192;8.184;2024-03-02T18:15:09;9.13;;;4.60;;
17528;SDS011;8882;53.192;8.184;2024-03-02T18:17:35;5.23;;;3.73;;
17528;SDS011;8882;53.192;8.184;2024-03-02T18:20:01;6.03;;;4.23;;
17528;SDS011;8882;53.192;8.184;2024-03-02T18:22:27;5.00;;;4.03;;
17528;SDS011;8882;53.192;8.184;2024-03-02T18:24:53;5.93;;;4.13;;
17528;SDS011;8882;53.192;8.184;2024-03-02T18:27:19;6.60;;;3.87;;
17528;SDS011;8882;53.192;8.184;2024-03-02T18:29:44;6.90;;;4.40;;
17528;SDS011;8882;53.192;8.184;2024-03-02T18:32:09;7.57;;;4.80;;
17528;SDS011;8882;53.192;8.184;2024-03-02T18:34:35;8.00;;;4.47;;
17528;SDS011;8882;53.192;8.184;2024-03-02T18:37:01;8.17;;;4.97;;
17528;SDS011;8882;53.192;8.184;2024-03-02T18:39:27;6.73;;;4.80;;
17528;SDS011;8882;53.192;8.184;2024-03-02T18:41:52;11.77;;;5.90;;
17528;SDS011;8882;53.192;8.184;2024-03-02T18:44:18;9.33;;;5.90;;
17528;SDS011;8882;53.192;8.184;2024-03-02T18:46:44;7.07;;;5.03;;
17528;SDS011;8882;53.192;8.184;2024-03-02T18:49:09;7.83;;;4.97;;
17528;SDS011;8882;53.192;8.184;2024-03-02T18:51:35;6.90;;;5.00;;
17528;SDS011;8882;53.192;8.184;2024-03-02T18:54:01;8.87;;;6.10;;
17528;SDS011;8882;53.192;8.184;2024-03-02T18:56:27;7.60;;;5.57;;
17528;SDS011;8882;53.192;8.184;2024-03-02T18:58:52;8.27;;;5.77;;
17528;SDS011;8882;53.192;8.184;2024-03-02T19:01:18;6.37;;;5.20;;
17528;SDS011;8882;53.192;8.184;2024-03-02T19:03:45;6.20;;;4.27;;
17528;SDS011;8882;53.192;8.184;2024-03-02T19:06:14;8.13;;;5.23;;
17528;SDS011;8882;53.192;8.184;2024-03-02T19:08:40;5.60;;;4.63;;
17528;SDS011;8882;53.192;8.184;2024-03-02T19:11:12;8.77;;;5.07;;
17528;SDS011;8882;53.192;8.184;2024-03-02T19:13:42;7.73;;;5.10;;
17528;SDS011;8882;53.192;8.184;2024-03-02T19:16:14;36.22;;;19.40;;
17528;SDS011;8882;53.192;8.184;2024-03-02T19:18:40;57.40;;;27.30;;
17528;SDS011;8882;53.192;8.184;2024-03-02T19:21:07;14.50;;;10.27;;
17528;SDS011;8882;53.192;8.184;2024-03-02T19:23:33;14.00;;;10.07;;
17528;SDS011;8882;53.192;8.184;2024-03-02T19:25:59;8.70;;;7.77;;
17528;SDS011;8882;53.192;8.184;2024-03-02T19:28:25;9.37;;;6.17;;
17528;SDS011;8882;53.192;8.184;2024-03-02T19:30:50;6.67;;;5.10;;
17528;SDS011;8882;53.192;8.184;2024-03-02T19:35:52;9.37;;;6.57;;
17528;SDS011;8882;53.192;8.184;2024-03-02T19:38:18;8.40;;;6.17;;
17528;SDS011;8882;53.192;8.184;2024-03-02T19:40:43;13.43;;;9.27;;
17528;SDS011;8882;53.192;8.184;2024-03-02T19:43:09;11.27;;;7.40;;
17528;SDS011;8882;53.192;8.184;2024-03-02T19:45:34;15.03;;;10.47;;
17528;SDS011;8882;53.192;8.184;2024-03-02T19:48:00;10.47;;;7.23;;
17528;SDS011;8882;53.192;8.184;2024-03-02T19:50:25;15.43;;;10.37;;
17528;SDS011;8882;53.192;8.184;2024-03-02T19:52:51;8.47;;;5.37;;
17528;SDS011;8882;53.192;8.184;2024-03-02T19:55:17;8.23;;;6.37;;
17528;SDS011;8882;53.192;8.184;2024-03-02T19:57:42;9.47;;;5.13;;
17528;SDS011;8882;53.192;8.184;2024-03-02T20:00:11;12.43;;;5.40;;
17528;SDS011;8882;53.192;8.184;2024-03-02T20:02:38;11.77;;;6.33;;
17528;SDS011;8882;53.192;8.184;2024-03-02T20:05:04;18.30;;;10.17;;
17528;SDS011;8882;53.192;8.184;2024-03-02T20:07:30;7.93;;;6.00;;
17528;SDS011;8882;53.192;8.184;2024-03-02T20:09:56;9.93;;;5.70;;
17528;SDS011;8882;53.192;8.184;2024-03-02T20:12:21;11.40;;;6.57;;
17528;SDS011;8882;53.192;8.184;2024-03-02T20:14:47;9.83;;;5.83;;
17528;SDS011;8882;53.192;8.184;2024-03-02T20:17:12;9.63;;;5.17;;
17528;SDS011;8882;53.192;8.184;2024-03-02T20:19:39;7.97;;;4.80;;
17528;SDS011;8882;53.192;8.184;2024-03-02T20:22:05;7.70;;;4.90;;
17528;SDS011;8882;53.192;8.184;2024-03-02T20:24:31;7.37;;;5.27;;
17528;SDS011;8882;53.192;8.184;2024-03-02T20:26:56;7.53;;;5.57;;